createdAt,value
2022-08-11T00:00:10.684Z,95.45
2022-08-11T00:01:11.046Z,95.75
2022-08-11T00:02:14.513Z,95.79
2022-08-11T00:03:11.880Z,95.90
2022-08-11T00:04:12.133Z,95.79
2022-08-11T00:05:12.489Z,95.79
2022-08-11T00:06:12.832Z,95.70
2022-08-11T00:07:13.193Z,95.90
2022-08-11T00:08:13.547Z,95.79
2022-08-11T00:09:13.913Z,95.79
2022-08-11T00:10:14.288Z,95.70
2022-08-11T00:11:14.644Z,95.70
2022-08-11T00:12:15.032Z,95.59
2022-08-11T00:13:15.383Z,95.50
2022-08-11T00:14:15.726Z,95.39
2022-08-11T00:15:16.116Z,95.50
2022-08-11T00:16:16.463Z,95.59
2022-08-11T00:17:16.820Z,95.90
2022-08-11T00:18:17.255Z,96.20
2022-08-11T00:19:17.555Z,96.30
2022-08-11T00:20:17.940Z,96.51
2022-08-11T00:21:18.244Z,96.75
2022-08-11T00:22:18.635Z,96.86
2022-08-11T00:23:19.032Z,96.86
2022-08-11T00:24:19.330Z,96.96
2022-08-11T00:25:19.714Z,97.36
2022-08-11T00:26:20.050Z,97.56
2022-08-11T00:27:20.408Z,97.56
2022-08-11T00:28:20.748Z,97.56
2022-08-11T00:29:21.155Z,97.67
2022-08-11T00:30:21.476Z,97.77
2022-08-11T00:31:21.819Z,97.77
2022-08-11T00:32:22.191Z,98.02
2022-08-11T00:33:22.561Z,98.22
2022-08-11T00:34:22.918Z,98.43
2022-08-11T00:35:51.968Z,98.43
2022-08-11T00:36:25.696Z,98.43
2022-08-11T00:37:24.001Z,98.63
2022-08-11T00:38:24.354Z,98.63
2022-08-11T00:39:28.726Z,98.52
2022-08-11T00:40:25.080Z,98.52
2022-08-11T00:41:25.439Z,98.83
2022-08-11T00:42:25.786Z,98.93
2022-08-11T00:43:26.162Z,98.93
2022-08-11T00:44:26.533Z,98.83
2022-08-11T00:45:26.891Z,98.73
2022-08-11T00:46:27.272Z,98.52
2022-08-11T00:47:27.598Z,98.43
2022-08-11T00:48:27.956Z,98.32
2022-08-11T00:49:28.361Z,98.43
2022-08-11T00:50:28.672Z,98.43
2022-08-11T00:51:29.030Z,98.52
2022-08-11T00:52:29.443Z,98.52
2022-08-11T00:53:29.753Z,98.83
2022-08-11T00:54:30.147Z,98.88
2022-08-11T00:55:30.466Z,99.08
2022-08-11T00:56:30.819Z,99.38
2022-08-11T00:57:36.991Z,99.38
2022-08-11T00:58:31.836Z,99.58
2022-08-11T00:59:35.263Z,99.58
2022-08-11T01:00:32.380Z,99.79
2022-08-11T01:01:32.741Z,99.69
2022-08-11T01:02:33.012Z,99.69
2022-08-11T01:03:33.370Z,99.58
2022-08-11T01:04:33.735Z,99.49
2022-08-11T01:05:34.088Z,99.28
2022-08-11T01:06:34.440Z,99.28
2022-08-11T01:08:02.692Z,99.38
2022-08-11T01:08:35.158Z,99.38
2022-08-11T01:09:35.535Z,99.38
2022-08-11T01:10:35.873Z,99.38
2022-08-11T01:11:36.230Z,99.49
2022-08-11T01:12:36.803Z,99.18
2022-08-11T01:13:36.986Z,98.88
2022-08-11T01:14:37.338Z,99.18
2022-08-11T01:15:37.689Z,99.18
2022-08-11T01:16:38.043Z,99.28
2022-08-11T01:17:38.493Z,99.38
2022-08-11T01:18:38.760Z,99.38
2022-08-11T01:20:45.573Z,99.28
2022-08-11T01:20:52.720Z,99.08
2022-08-11T01:21:39.903Z,98.97
2022-08-11T01:22:40.255Z,98.88
2022-08-11T01:23:40.626Z,98.97
2022-08-11T01:24:41.000Z,99.18
2022-08-11T01:25:56.782Z,99.18
2022-08-11T01:26:41.735Z,99.18
2022-08-11T01:27:42.082Z,98.97
2022-08-11T01:28:42.439Z,99.18
2022-08-11T01:29:42.798Z,99.28
2022-08-11T01:30:43.142Z,99.53
2022-08-11T01:31:43.477Z,99.94
2022-08-11T01:32:43.973Z,99.99
2022-08-11T01:33:44.174Z,99.99
2022-08-11T01:34:44.543Z,99.99
2022-08-11T01:35:44.889Z,99.99
2022-08-11T01:36:45.251Z,99.99
2022-08-11T01:37:45.601Z,99.99
2022-08-11T01:38:45.954Z,99.99
2022-08-11T01:39:46.441Z,99.99
2022-08-11T01:40:46.683Z,99.99
2022-08-11T01:41:47.023Z,99.99
2022-08-11T01:42:47.368Z,99.99
2022-08-11T01:43:47.765Z,99.99
2022-08-11T01:44:48.104Z,99.99
2022-08-11T01:45:48.454Z,99.99
2022-08-11T01:46:48.806Z,99.99
2022-08-11T01:47:53.275Z,99.99
2022-08-11T01:48:49.514Z,99.99
2022-08-11T01:50:09.310Z,99.99
2022-08-11T01:50:50.301Z,99.99
2022-08-11T01:51:50.730Z,99.99
2022-08-11T01:52:50.957Z,99.99
2022-08-11T01:53:51.303Z,99.99
2022-08-11T01:54:51.688Z,99.99
2022-08-11T01:55:52.026Z,99.99
2022-08-11T01:56:52.405Z,99.99
2022-08-11T01:57:52.756Z,99.99
2022-08-11T01:58:53.126Z,99.99
2022-08-11T01:59:53.521Z,99.99
2022-08-11T02:00:53.860Z,99.99
2022-08-11T02:01:54.193Z,99.99
2022-08-11T02:02:54.571Z,99.99
2022-08-11T02:03:54.913Z,99.99
2022-08-11T02:04:55.290Z,99.99
2022-08-11T02:05:55.633Z,99.99
2022-08-11T02:06:56.014Z,99.99
2022-08-11T02:07:56.365Z,99.99
2022-08-11T02:08:56.748Z,99.99
2022-08-11T02:09:57.102Z,99.99
2022-08-11T02:10:57.540Z,99.99
2022-08-11T02:11:57.837Z,99.99
2022-08-11T02:12:58.210Z,99.99
2022-08-11T02:13:58.575Z,99.99
2022-08-11T02:15:05.322Z,99.99
2022-08-11T02:15:59.285Z,99.99
2022-08-11T02:16:59.638Z,99.99
2022-08-11T02:17:59.987Z,99.99
2022-08-11T02:19:00.372Z,99.99
2022-08-11T02:20:00.733Z,99.99
2022-08-11T02:21:01.086Z,99.99
2022-08-11T02:22:01.465Z,99.99
2022-08-11T02:23:01.818Z,99.99
2022-08-11T02:24:07.050Z,99.99
2022-08-11T02:25:02.606Z,99.99
2022-08-11T02:26:02.925Z,99.99
2022-08-11T02:27:03.306Z,99.99
2022-08-11T02:28:03.659Z,99.99
2022-08-11T02:29:04.018Z,99.99
2022-08-11T02:30:04.458Z,99.99
2022-08-11T02:31:04.822Z,99.99
2022-08-11T02:32:24.473Z,99.99
2022-08-11T02:33:05.472Z,99.99
2022-08-11T02:34:05.806Z,99.99
2022-08-11T02:35:06.171Z,99.99
2022-08-11T02:36:06.537Z,99.99
2022-08-11T02:37:06.874Z,99.99
2022-08-11T02:38:07.224Z,99.99
2022-08-11T02:39:07.603Z,99.99
2022-08-11T02:40:07.975Z,99.99
2022-08-11T02:41:08.381Z,99.99
2022-08-11T02:42:08.639Z,99.99
2022-08-11T02:43:09.041Z,99.99
2022-08-11T02:44:09.353Z,99.99
2022-08-11T02:45:09.723Z,99.99
2022-08-11T02:46:18.215Z,99.99
2022-08-11T02:47:10.422Z,99.99
2022-08-11T02:48:10.785Z,99.99
2022-08-11T02:49:11.150Z,99.99
2022-08-11T02:50:11.533Z,99.99
2022-08-11T02:51:11.918Z,99.99
2022-08-11T02:52:12.221Z,99.99
2022-08-11T02:53:12.572Z,99.99
2022-08-11T02:54:12.913Z,99.99
2022-08-11T02:55:48.814Z,99.99
2022-08-11T02:56:13.644Z,99.99
2022-08-11T02:57:14.064Z,99.99
2022-08-11T02:58:14.389Z,99.99
2022-08-11T02:59:14.743Z,99.99
2022-08-11T03:00:15.152Z,99.99
2022-08-11T03:01:15.499Z,99.99
2022-08-11T03:02:16.786Z,99.99
2022-08-11T03:03:16.251Z,99.99
2022-08-11T03:04:16.549Z,99.99
2022-08-11T03:05:16.917Z,99.99
2022-08-11T03:06:17.278Z,99.99
2022-08-11T03:07:28.057Z,99.99
2022-08-11T03:08:18.179Z,99.99
2022-08-11T03:09:18.423Z,99.99
2022-08-11T03:10:18.940Z,99.99
2022-08-11T03:11:19.194Z,99.99
2022-08-11T03:12:19.368Z,99.99
2022-08-11T03:13:19.655Z,99.99
2022-08-11T03:14:19.939Z,99.99
2022-08-11T03:15:20.339Z,99.99
2022-08-11T03:16:20.509Z,99.99
2022-08-11T03:17:20.921Z,99.99
2022-08-11T03:18:21.042Z,99.99
2022-08-11T03:19:21.326Z,99.99
2022-08-11T03:20:21.650Z,99.99
2022-08-11T03:21:21.938Z,99.99
2022-08-11T03:22:22.082Z,99.99
2022-08-11T03:23:22.274Z,99.99
2022-08-11T03:24:22.423Z,99.99
2022-08-11T03:25:22.765Z,99.99
2022-08-11T03:26:22.917Z,99.99
2022-08-11T03:27:23.176Z,99.99
2022-08-11T03:28:23.352Z,99.99
2022-08-11T03:29:25.090Z,99.99
2022-08-11T03:30:23.706Z,99.99
2022-08-11T03:31:23.902Z,99.99
2022-08-11T03:32:24.065Z,99.99
2022-08-11T03:33:24.342Z,99.99
2022-08-11T03:34:24.520Z,99.99
2022-08-11T03:35:24.863Z,99.99
2022-08-11T03:36:24.991Z,99.99
2022-08-11T03:37:25.165Z,99.99
2022-08-11T03:38:30.721Z,99.99
2022-08-11T03:39:25.693Z,99.99
2022-08-11T03:40:26.042Z,99.99
2022-08-11T03:42:03.737Z,99.99
2022-08-11T03:42:26.498Z,99.99
2022-08-11T03:43:26.789Z,99.99
2022-08-11T03:44:27.070Z,99.99
2022-08-11T03:45:27.344Z,99.99
2022-08-11T03:46:27.542Z,99.99
2022-08-11T03:47:27.714Z,99.99
2022-08-11T03:48:28.017Z,99.99
2022-08-11T03:49:28.314Z,99.99
2022-08-11T03:50:28.664Z,99.99
2022-08-11T03:51:44.850Z,99.99
2022-08-11T03:52:29.114Z,99.99
2022-08-11T03:53:29.253Z,99.99
2022-08-11T03:54:29.432Z,99.99
2022-08-11T03:55:29.662Z,99.99
2022-08-11T03:56:29.803Z,99.99
2022-08-11T03:57:29.955Z,99.99
2022-08-11T03:58:30.165Z,99.99
2022-08-11T03:59:30.299Z,99.99
2022-08-11T04:00:30.510Z,99.99
2022-08-11T04:01:30.811Z,99.99
2022-08-11T04:02:30.927Z,99.99
2022-08-11T04:03:31.681Z,99.99
2022-08-11T04:04:31.286Z,99.99
2022-08-11T04:05:31.467Z,99.99
2022-08-11T04:06:31.625Z,99.99
2022-08-11T04:07:31.805Z,99.99
2022-08-11T04:08:34.280Z,99.99
2022-08-11T04:09:32.286Z,99.99
2022-08-11T04:10:32.485Z,99.99
2022-08-11T04:11:32.657Z,99.99
2022-08-11T04:12:36.455Z,99.99
2022-08-11T04:13:32.980Z,99.99
2022-08-11T04:14:33.139Z,99.99
2022-08-11T04:15:33.329Z,99.99
2022-08-11T04:16:33.485Z,99.99
2022-08-11T04:17:35.093Z,99.99
2022-08-11T04:18:33.830Z,99.99
2022-08-11T04:19:34.010Z,99.99
2022-08-11T04:20:34.291Z,99.99
2022-08-11T04:21:34.362Z,99.99
2022-08-11T04:22:34.578Z,99.99
2022-08-11T04:24:36.060Z,99.99
2022-08-11T04:24:47.031Z,99.99
2022-08-11T04:25:35.246Z,99.99
2022-08-11T04:26:35.353Z,99.99
2022-08-11T04:27:37.645Z,99.99
2022-08-11T04:28:42.877Z,99.99
2022-08-11T04:30:03.365Z,99.99
2022-08-11T04:30:40.436Z,99.99
2022-08-11T04:31:50.452Z,99.99
2022-08-11T04:32:36.742Z,99.57
2022-08-11T04:33:36.717Z,99.37
2022-08-11T04:34:36.912Z,99.37
2022-08-11T04:35:37.100Z,99.57
2022-08-11T04:36:37.325Z,99.63
2022-08-11T04:37:37.417Z,99.52
2022-08-11T04:38:37.621Z,99.52
2022-08-11T04:39:37.864Z,99.73
2022-08-11T04:40:37.990Z,99.27
2022-08-11T04:41:38.133Z,98.57
2022-08-11T04:42:38.483Z,96.86
2022-08-11T04:43:38.496Z,95.29
2022-08-11T04:44:38.877Z,93.68
2022-08-11T04:45:38.873Z,92.02
2022-08-11T04:46:39.068Z,90.72
2022-08-11T04:48:01.772Z,90.11
2022-08-11T04:48:39.523Z,89.42
2022-08-11T04:49:40.001Z,88.17
2022-08-11T04:50:39.928Z,86.91
2022-08-11T04:51:40.254Z,86.61
2022-08-11T04:52:40.677Z,85.86
2022-08-11T04:53:40.595Z,85.76
2022-08-11T04:54:41.805Z,85.82
2022-08-11T04:55:41.080Z,84.21
2022-08-11T04:56:41.252Z,83.56
2022-08-11T04:57:41.426Z,82.71
2022-08-11T04:58:41.595Z,82.71
2022-08-11T04:59:41.774Z,82.42
2022-08-11T05:00:41.979Z,81.98
2022-08-11T05:01:42.322Z,81.13
2022-08-11T05:02:42.386Z,80.73
2022-08-11T05:03:42.604Z,80.08
2022-08-11T05:04:42.786Z,79.14
2022-08-11T05:05:56.551Z,78.84
2022-08-11T05:06:43.147Z,78.20
2022-08-11T05:07:43.334Z,77.70
2022-08-11T05:08:43.534Z,77.16
2022-08-11T05:09:43.709Z,76.12
2022-08-11T05:10:43.924Z,75.58
2022-08-11T05:11:44.144Z,75.04
2022-08-11T05:12:44.304Z,73.90
2022-08-11T05:13:45.307Z,72.97
2022-08-11T05:14:44.685Z,72.97
2022-08-11T05:15:49.519Z,72.03
2022-08-11T05:16:45.050Z,71.19
2022-08-11T05:17:45.933Z,70.66
2022-08-11T05:18:45.435Z,70.09
2022-08-11T05:19:45.617Z,70.79
2022-08-11T05:20:45.827Z,71.09
2022-08-11T05:21:46.026Z,71.43
2022-08-11T05:22:46.218Z,71.83
2022-08-11T05:23:46.396Z,71.83
2022-08-11T05:24:46.571Z,71.50
2022-08-11T05:26:45.531Z,71.39
2022-08-11T05:26:52.722Z,71.19
2022-08-11T05:27:47.183Z,71.00
2022-08-11T05:28:47.323Z,71.09
2022-08-11T05:29:47.490Z,71.09
2022-08-11T05:30:47.680Z,70.89
2022-08-11T05:31:47.865Z,70.59
2022-08-11T05:32:48.085Z,71.43
2022-08-11T05:33:48.229Z,71.43
2022-08-11T05:34:48.435Z,71.03
2022-08-11T05:36:01.404Z,71.59
2022-08-11T05:36:48.836Z,71.30
2022-08-11T05:37:49.024Z,70.66
2022-08-11T05:38:49.248Z,69.93
2022-08-11T05:39:49.428Z,69.82
2022-08-11T05:40:51.163Z,69.29
2022-08-11T05:41:49.790Z,69.59
2022-08-11T05:42:49.975Z,69.73
2022-08-11T05:44:21.203Z,70.56
2022-08-11T05:44:50.379Z,71.26
2022-08-11T05:46:03.204Z,72.00
2022-08-11T05:46:50.793Z,71.09
2022-08-11T05:47:50.939Z,71.53
2022-08-11T05:48:51.128Z,70.19
2022-08-11T05:49:51.306Z,70.26
2022-08-11T05:50:51.496Z,69.86
2022-08-11T05:51:54.885Z,69.62
2022-08-11T05:52:56.528Z,69.32
2022-08-11T05:53:52.065Z,68.79
2022-08-11T05:54:54.369Z,69.02
2022-08-11T05:56:03.296Z,69.53
2022-08-11T05:56:52.648Z,69.62
2022-08-11T05:57:52.836Z,69.66
2022-08-11T05:58:53.015Z,69.13
2022-08-11T05:59:53.267Z,69.32
2022-08-11T06:00:53.418Z,69.82
2022-08-11T06:01:53.700Z,68.89
2022-08-11T06:02:53.789Z,69.09
2022-08-11T06:03:57.576Z,69.39
2022-08-11T06:04:54.150Z,68.49
2022-08-11T06:05:54.355Z,68.36
2022-08-11T06:06:54.534Z,67.86
2022-08-11T06:07:54.782Z,68.06
2022-08-11T06:08:54.879Z,68.46
2022-08-11T06:09:55.071Z,67.86
2022-08-11T06:10:55.279Z,68.06
2022-08-11T06:11:55.426Z,68.76
2022-08-11T06:12:55.653Z,68.76
2022-08-11T06:13:55.824Z,68.89
2022-08-11T06:14:55.997Z,69.09
2022-08-11T06:15:56.215Z,69.73
2022-08-11T06:16:56.370Z,71.39
2022-08-11T06:17:56.543Z,72.13
2022-08-11T06:18:56.734Z,72.86
2022-08-11T06:19:56.929Z,73.60
2022-08-11T06:20:57.130Z,73.80
2022-08-11T06:21:57.284Z,75.37
2022-08-11T06:22:57.456Z,75.91
2022-08-11T06:23:57.651Z,77.45
2022-08-11T06:24:57.832Z,77.59
2022-08-11T06:25:58.042Z,79.13
2022-08-11T06:27:14.044Z,79.53
2022-08-11T06:27:58.412Z,79.93
2022-08-11T06:28:58.593Z,80.47
2022-08-11T06:29:58.799Z,80.88
2022-08-11T06:30:59.002Z,80.71
2022-08-11T06:31:59.183Z,80.81
2022-08-11T06:32:59.364Z,80.91
2022-08-11T06:33:59.564Z,80.81
2022-08-11T06:34:59.758Z,81.12
2022-08-11T06:35:59.951Z,81.41
2022-08-11T06:37:00.144Z,81.12
2022-08-11T06:38:00.307Z,81.38
2022-08-11T06:39:00.513Z,80.98
2022-08-11T06:40:00.705Z,80.57
2022-08-11T06:41:00.907Z,80.33
2022-08-11T06:42:01.053Z,79.53
2022-08-11T06:43:01.238Z,78.59
2022-08-11T06:44:05.186Z,79.09
2022-08-11T06:45:01.596Z,77.05
2022-08-11T06:46:01.809Z,76.34
2022-08-11T06:47:01.940Z,76.41
2022-08-11T06:48:02.151Z,76.81
2022-08-11T06:49:02.375Z,76.71
2022-08-11T06:50:02.534Z,77.41
2022-08-11T06:51:02.733Z,77.21
2022-08-11T06:52:04.590Z,77.61
2022-08-11T06:53:03.093Z,77.67
2022-08-11T06:54:05.690Z,76.98
2022-08-11T06:55:03.480Z,76.98
2022-08-11T06:56:03.667Z,76.98
2022-08-11T06:57:28.802Z,77.28
2022-08-11T06:58:04.037Z,76.87
2022-08-11T06:59:04.226Z,76.78
2022-08-11T07:00:04.416Z,76.87
2022-08-11T07:01:04.670Z,77.17
2022-08-11T07:02:04.758Z,76.84
2022-08-11T07:03:04.940Z,76.17
2022-08-11T07:04:05.116Z,76.24
2022-08-11T07:05:05.303Z,75.34
2022-08-11T07:06:05.514Z,75.43
2022-08-11T07:07:05.707Z,75.13
2022-08-11T07:08:33.900Z,74.54
2022-08-11T07:09:06.098Z,74.23
2022-08-11T07:10:06.237Z,74.43
2022-08-11T07:11:06.430Z,74.13
2022-08-11T07:12:06.630Z,74.20
2022-08-11T07:13:06.872Z,73.60
2022-08-11T07:14:06.998Z,74.00
2022-08-11T07:15:07.187Z,73.30
2022-08-11T07:16:13.207Z,73.00
2022-08-11T07:17:07.584Z,73.06
2022-08-11T07:18:07.771Z,72.56
2022-08-11T07:19:08.884Z,72.36
2022-08-11T07:20:08.141Z,72.56
2022-08-11T07:21:43.100Z,72.33
2022-08-11T07:22:08.552Z,71.76
2022-08-11T07:23:08.713Z,71.76
2022-08-11T07:24:08.890Z,71.76
2022-08-11T07:25:09.086Z,71.92
2022-08-11T07:26:09.265Z,71.33
2022-08-11T07:27:09.451Z,71.62
2022-08-11T07:28:09.646Z,72.13
2022-08-11T07:29:09.864Z,71.49
2022-08-11T07:30:10.165Z,71.49
2022-08-11T07:31:10.275Z,71.19
2022-08-11T07:32:10.378Z,71.69
2022-08-11T07:33:10.577Z,70.86
2022-08-11T07:34:15.884Z,70.69
2022-08-11T07:35:10.939Z,70.19
2022-08-11T07:36:11.143Z,69.59
2022-08-11T07:37:11.328Z,69.99
2022-08-11T07:38:11.512Z,69.59
2022-08-11T07:39:11.775Z,69.66
2022-08-11T07:40:11.871Z,69.62
2022-08-11T07:41:12.091Z,69.82
2022-08-11T07:42:12.239Z,70.03
2022-08-11T07:43:12.412Z,70.92
2022-08-11T07:44:12.597Z,70.99
2022-08-11T07:45:12.763Z,71.29
2022-08-11T07:46:12.972Z,71.49
2022-08-11T07:47:13.167Z,70.89
2022-08-11T07:48:13.348Z,70.96
2022-08-11T07:49:13.581Z,70.86
2022-08-11T07:50:13.755Z,70.62
2022-08-11T07:51:13.992Z,70.83
2022-08-11T07:52:14.141Z,69.93
2022-08-11T07:53:14.335Z,69.82
2022-08-11T07:54:16.455Z,69.82
2022-08-11T07:55:14.694Z,69.79
2022-08-11T07:56:15.559Z,69.66
2022-08-11T07:57:47.373Z,69.56
2022-08-11T07:58:20.204Z,68.96
2022-08-11T07:59:15.502Z,68.43
2022-08-11T08:00:15.684Z,68.43
2022-08-11T08:01:21.658Z,68.76
2022-08-11T08:02:16.107Z,69.13
2022-08-11T08:03:16.254Z,69.32
2022-08-11T08:04:16.414Z,69.02
2022-08-11T08:05:16.595Z,69.02
2022-08-11T08:06:35.864Z,68.30
2022-08-11T08:07:16.986Z,68.40
2022-08-11T08:08:17.455Z,68.30
2022-08-11T08:09:17.417Z,68.19
2022-08-11T08:10:17.514Z,68.26
2022-08-11T08:11:20.275Z,66.37
2022-08-11T08:12:17.881Z,66.67
2022-08-11T08:13:18.181Z,66.53
2022-08-11T08:14:18.266Z,66.24
2022-08-11T08:15:18.450Z,65.54
2022-08-11T08:16:18.656Z,65.14
2022-08-11T08:17:18.833Z,65.11
2022-08-11T08:18:26.487Z,65.64
2022-08-11T08:19:19.191Z,65.24
2022-08-11T08:20:19.391Z,66.44
2022-08-11T08:21:19.586Z,67.03
2022-08-11T08:22:37.967Z,66.94
2022-08-11T08:23:19.940Z,66.91
2022-08-11T08:24:20.183Z,64.22
2022-08-11T08:25:20.335Z,63.32
2022-08-11T08:26:20.547Z,64.84
2022-08-11T08:27:20.693Z,64.61
2022-08-11T08:28:20.889Z,61.63
2022-08-11T08:29:21.087Z,62.13
2022-08-11T08:30:21.271Z,62.72
2022-08-11T08:31:21.474Z,61.43
2022-08-11T08:32:21.643Z,62.42
2022-08-11T08:33:21.810Z,63.62
2022-08-11T08:34:21.983Z,62.42
2022-08-11T08:35:22.145Z,61.76
2022-08-11T08:36:22.340Z,59.34
2022-08-11T08:37:46.700Z,58.94
2022-08-11T08:38:22.669Z,59.64
2022-08-11T08:39:23.019Z,60.13
2022-08-11T08:40:23.048Z,59.11
2022-08-11T08:41:23.287Z,58.41
2022-08-11T08:42:23.429Z,59.41
2022-08-11T08:43:23.657Z,60.24
2022-08-11T08:44:41.365Z,59.23
2022-08-11T08:45:24.046Z,60.70
2022-08-11T08:46:24.209Z,60.47
2022-08-11T08:47:43.101Z,60.47
2022-08-11T08:48:24.534Z,60.77
2022-08-11T08:49:24.721Z,60.25
2022-08-11T08:50:28.034Z,60.44
2022-08-11T08:51:25.087Z,60.14
2022-08-11T08:52:30.762Z,59.72
2022-08-11T08:53:25.482Z,59.69
2022-08-11T08:54:25.660Z,59.30
2022-08-11T08:55:25.827Z,58.57
2022-08-11T08:56:26.039Z,56.63
2022-08-11T08:57:26.223Z,56.01
2022-08-11T08:58:26.437Z,56.85
2022-08-11T08:59:26.584Z,57.06
2022-08-11T09:00:26.794Z,57.25
2022-08-11T09:01:27.006Z,56.95
2022-08-11T09:02:34.592Z,55.81
2022-08-11T09:04:04.923Z,54.17
2022-08-11T09:04:27.485Z,53.53
2022-08-11T09:05:27.696Z,53.45
2022-08-11T09:06:27.864Z,53.00
2022-08-11T09:07:31.365Z,52.88
2022-08-11T09:08:28.239Z,52.98
2022-08-11T09:09:28.434Z,52.19
2022-08-11T09:10:28.614Z,52.06
2022-08-11T09:11:28.851Z,53.03
2022-08-11T09:12:38.300Z,53.72
2022-08-11T09:13:29.177Z,52.96
2022-08-11T09:14:29.353Z,53.97
2022-08-11T09:15:29.668Z,54.96
2022-08-11T09:16:29.752Z,53.72
2022-08-11T09:17:30.041Z,52.71
2022-08-11T09:18:33.584Z,53.42
2022-08-11T09:19:30.348Z,54.35
2022-08-11T09:20:30.516Z,52.88
2022-08-11T09:21:39.775Z,52.39
2022-08-11T09:22:30.888Z,52.88
2022-08-11T09:24:31.263Z,51.54
2022-08-11T09:25:31.460Z,50.95
2022-08-11T09:26:31.640Z,49.45
2022-08-11T09:27:31.850Z,49.65
2022-08-11T09:28:32.029Z,49.99
2022-08-11T09:29:32.220Z,50.71
2022-08-11T09:30:32.402Z,50.78
2022-08-11T09:31:35.811Z,48.14
2022-08-11T09:32:32.807Z,47.94
2022-08-11T09:33:32.937Z,48.96
2022-08-11T09:34:33.141Z,47.89
2022-08-11T09:35:33.317Z,47.28
2022-08-11T09:36:33.516Z,47.35
2022-08-11T09:37:55.815Z,47.35
2022-08-11T09:38:33.896Z,48.21
2022-08-11T09:39:34.095Z,48.31
2022-08-11T09:40:34.273Z,48.07
2022-08-11T09:42:01.880Z,46.26
2022-08-11T09:42:34.619Z,46.59
2022-08-11T09:43:34.829Z,46.48
2022-08-11T09:44:35.001Z,45.56
2022-08-11T09:45:40.235Z,45.53
2022-08-11T09:46:35.425Z,44.94
2022-08-11T09:47:35.612Z,45.95
2022-08-11T09:48:35.790Z,45.75
2022-08-11T09:49:35.972Z,45.57
2022-08-11T09:50:36.185Z,45.87
2022-08-11T09:51:36.397Z,46.26
2022-08-11T09:52:36.556Z,45.38
2022-08-11T09:53:40.873Z,45.46
2022-08-11T09:54:36.942Z,46.25
2022-08-11T09:55:37.145Z,46.42
2022-08-11T09:56:37.351Z,44.21
2022-08-11T09:57:37.714Z,44.21
2022-08-11T09:58:42.432Z,43.42
2022-08-11T09:59:37.889Z,43.96
2022-08-11T10:00:38.084Z,43.52
2022-08-11T10:01:38.377Z,43.42
2022-08-11T10:02:38.436Z,43.62
2022-08-11T10:03:40.527Z,42.81
2022-08-11T10:04:38.854Z,42.71
2022-08-11T10:05:39.076Z,42.65
2022-08-11T10:06:39.252Z,41.08
2022-08-11T10:07:39.705Z,41.61
2022-08-11T10:08:39.635Z,43.13
2022-08-11T10:09:39.808Z,42.71
2022-08-11T10:10:40.048Z,42.83
2022-08-11T10:11:40.246Z,42.52
2022-08-11T10:12:40.432Z,41.80
2022-08-11T10:14:30.375Z,42.41
2022-08-11T10:14:44.514Z,44.15
2022-08-11T10:15:55.697Z,44.65
2022-08-11T10:16:41.297Z,44.67
2022-08-11T10:17:41.474Z,44.35
2022-08-11T10:18:41.660Z,44.23
2022-08-11T10:19:41.885Z,43.24
2022-08-11T10:20:42.039Z,43.60
2022-08-11T10:21:42.251Z,42.47
2022-08-11T10:22:42.416Z,43.29
2022-08-11T10:24:01.240Z,44.00
2022-08-11T10:25:59.218Z,42.63
2022-08-11T10:27:00.117Z,42.12
2022-08-11T10:28:17.656Z,42.97
2022-08-11T10:29:12.682Z,43.07
2022-08-11T10:29:59.665Z,43.88
2022-08-11T10:30:59.336Z,44.18
2022-08-11T10:32:02.110Z,44.39
2022-08-11T10:33:00.233Z,44.06
2022-08-11T10:34:00.042Z,44.06
2022-08-11T10:35:00.117Z,43.13
2022-08-11T10:36:00.296Z,42.81
2022-08-11T10:37:00.500Z,43.32
2022-08-11T10:38:15.668Z,42.81
2022-08-11T10:39:00.904Z,42.81
2022-08-11T10:40:01.085Z,43.01
2022-08-11T10:41:01.386Z,42.91
2022-08-11T10:42:07.297Z,42.76
2022-08-11T10:43:02.019Z,42.58
2022-08-11T10:44:04.039Z,44.07
2022-08-11T10:45:02.177Z,42.85
2022-08-11T10:46:02.349Z,42.36
2022-08-11T10:47:02.565Z,42.54
2022-08-11T10:48:02.797Z,42.49
2022-08-11T10:49:03.020Z,42.10
2022-08-11T10:50:03.184Z,42.32
2022-08-11T10:51:03.462Z,41.55
2022-08-11T10:52:03.610Z,41.86
2022-08-11T10:53:03.825Z,41.75
2022-08-11T10:54:04.024Z,42.77
2022-08-11T10:55:04.206Z,42.46
2022-08-11T10:56:05.895Z,42.65
2022-08-11T10:57:04.616Z,42.36
2022-08-11T10:58:05.656Z,42.97
2022-08-11T10:59:04.996Z,41.69
2022-08-11T11:00:05.253Z,40.17
2022-08-11T11:01:05.558Z,40.25
2022-08-11T11:02:05.698Z,39.21
2022-08-11T11:03:22.788Z,37.60
2022-08-11T11:04:06.039Z,37.13
2022-08-11T11:05:06.224Z,39.34
2022-08-11T11:06:13.011Z,39.05
2022-08-11T11:07:06.631Z,39.86
2022-08-11T11:08:06.837Z,40.35
2022-08-11T11:09:07.005Z,42.18
2022-08-11T11:10:07.204Z,41.85
2022-08-11T11:11:07.376Z,40.76
2022-08-11T11:12:07.567Z,41.11
2022-08-11T11:13:07.772Z,38.66
2022-08-11T11:14:07.951Z,38.15
2022-08-11T11:15:08.436Z,38.34
2022-08-11T11:16:08.344Z,39.03
2022-08-11T11:17:08.539Z,39.64
2022-08-11T11:18:08.724Z,40.17
2022-08-11T11:19:08.943Z,39.78
2022-08-11T11:20:09.174Z,39.58
2022-08-11T11:21:09.375Z,39.87
2022-08-11T11:22:09.570Z,40.78
2022-08-11T11:23:09.783Z,41.00
2022-08-11T11:24:09.968Z,41.08
2022-08-11T11:25:10.152Z,40.76
2022-08-11T11:26:10.482Z,40.45
2022-08-11T11:27:10.538Z,40.88
2022-08-11T11:28:10.733Z,41.61
2022-08-11T11:29:10.921Z,41.59
2022-08-11T11:30:11.119Z,40.86
2022-08-11T11:31:11.290Z,40.29
2022-08-11T11:32:11.486Z,40.29
2022-08-11T11:33:11.695Z,40.17
2022-08-11T11:34:12.627Z,39.70
2022-08-11T11:35:12.091Z,39.79
2022-08-11T11:36:12.279Z,39.58
2022-08-11T11:37:12.494Z,40.48
2022-08-11T11:38:14.066Z,40.37
2022-08-11T11:39:12.897Z,40.16
2022-08-11T11:40:13.197Z,39.87
2022-08-11T11:41:13.286Z,40.58
2022-08-11T11:42:13.558Z,41.00
2022-08-11T11:43:13.715Z,40.47
2022-08-11T11:44:13.895Z,39.78
2022-08-11T11:45:24.096Z,40.37
2022-08-11T11:46:14.342Z,40.39
2022-08-11T11:47:14.544Z,40.19
2022-08-11T11:48:14.724Z,39.81
2022-08-11T11:49:16.761Z,40.11
2022-08-11T11:50:15.108Z,40.39
2022-08-11T11:51:15.294Z,39.66
2022-08-11T11:52:15.500Z,39.86
2022-08-11T11:53:15.722Z,39.17
2022-08-11T11:54:15.900Z,39.31
2022-08-11T11:55:16.131Z,39.42
2022-08-11T11:56:16.292Z,40.21
2022-08-11T11:57:16.549Z,40.15
2022-08-11T11:58:18.672Z,41.25
2022-08-11T11:59:16.948Z,41.02
2022-08-11T12:00:17.123Z,39.89
2022-08-11T12:01:17.357Z,40.01
2022-08-11T12:02:17.614Z,38.89
2022-08-11T12:03:17.841Z,38.58
2022-08-11T12:04:17.941Z,39.58
2022-08-11T12:05:18.224Z,38.99
2022-08-11T12:06:18.369Z,38.87
2022-08-11T12:07:18.603Z,39.07
2022-08-11T12:08:18.783Z,40.21
2022-08-11T12:09:19.015Z,40.58
2022-08-11T12:10:19.213Z,39.62
2022-08-11T12:11:19.425Z,39.42
2022-08-11T12:12:19.648Z,39.62
2022-08-11T12:13:19.829Z,39.62
2022-08-11T12:14:20.072Z,39.01
2022-08-11T12:16:04.457Z,39.31
2022-08-11T12:16:37.050Z,39.31
2022-08-11T12:17:20.680Z,39.09
2022-08-11T12:18:20.861Z,39.39
2022-08-11T12:19:21.045Z,40.01
2022-08-11T12:20:33.697Z,40.43
2022-08-11T12:21:21.478Z,40.70
2022-08-11T12:22:21.746Z,39.60
2022-08-11T12:23:21.905Z,40.23
2022-08-11T12:24:22.073Z,40.09
2022-08-11T12:25:22.294Z,40.19
2022-08-11T12:26:27.175Z,40.08
2022-08-11T12:27:25.183Z,40.03
2022-08-11T12:28:22.889Z,39.64
2022-08-11T12:29:23.119Z,39.64
2022-08-11T12:30:23.286Z,40.17
2022-08-11T12:31:23.531Z,39.07
2022-08-11T12:32:23.713Z,39.07
2022-08-11T12:33:24.227Z,38.17
2022-08-11T12:34:24.081Z,38.95
2022-08-11T12:35:24.272Z,38.62
2022-08-11T12:36:24.484Z,37.70
2022-08-11T12:37:24.657Z,38.05
2022-08-11T12:38:29.933Z,37.85
2022-08-11T12:40:16.024Z,38.34
2022-08-11T12:41:27.936Z,39.15
2022-08-11T12:42:25.718Z,38.64
2022-08-11T12:43:38.067Z,38.64
2022-08-11T12:44:26.105Z,38.40
2022-08-11T12:45:26.324Z,37.92
2022-08-11T12:46:26.551Z,38.05
2022-08-11T12:47:26.747Z,38.46
2022-08-11T12:48:58.412Z,38.78
2022-08-11T12:49:27.163Z,39.58
2022-08-11T12:50:27.342Z,38.78
2022-08-11T12:51:27.580Z,39.68
2022-08-11T12:52:27.799Z,40.09
2022-08-11T12:53:27.968Z,39.37
2022-08-11T12:54:28.199Z,38.89
2022-08-11T12:55:28.430Z,39.47
2022-08-11T12:56:28.579Z,38.97
2022-08-11T12:57:36.478Z,38.85
2022-08-11T12:58:28.963Z,37.65